Auburn, Kentucky
Current Conditions -  °F | °C
As of 12:53 PM on Saturday 20 Dec 2014 (Local Time) from KBWG Reporting Station
Scattered Clouds Scattered Clouds  
Wind Chill: 42°   Ceiling: Unl
Heat Index: 42°   Visibility: 10mi
Dew Point: 26°   Wind: 0mph
Humidity: 53%   Direction: NA
Pressure: 30.25"   Gusts: NA
Location:  36.86°N, 86.71°W
Report Text: KBWG 201853Z AUTO 00000KT 10SM SCT060 06/M03 A3025 RMK AO2 SLP245 T00561033
Loading
Personal Weather Stations






























Interactive Weather Map New forecast layout! Learn more

10-Day Weather Forecast

Advertisements
Track Severe Weather on mobile